sensor_id;sensor_type;location;lat;lon;timestamp;P1;durP1;ratioP1;P2;durP2;ratioP2
23088;SDS011;11713;48.506;8.966;2023-05-07T00:00:11;4.03;;;3.63;;
23088;SDS011;11713;48.506;8.966;2023-05-07T00:02:40;4.73;;;3.40;;
23088;SDS011;11713;48.506;8.966;2023-05-07T00:05:06;4.10;;;3.60;;
23088;SDS011;11713;48.506;8.966;2023-05-07T00:07:32;4.60;;;3.27;;
23088;SDS011;11713;48.506;8.966;2023-05-07T00:09:58;4.00;;;3.60;;
23088;SDS011;11713;48.506;8.966;2023-05-07T00:12:24;5.60;;;3.43;;
23088;SDS011;11713;48.506;8.966;2023-05-07T00:14:50;4.07;;;3.60;;
23088;SDS011;11713;48.506;8.966;2023-05-07T00:17:16;5.90;;;3.80;;
23088;SDS011;11713;48.506;8.966;2023-05-07T00:19:42;3.97;;;3.63;;
23088;SDS011;11713;48.506;8.966;2023-05-07T00:22:09;5.43;;;3.80;;
23088;SDS011;11713;48.506;8.966;2023-05-07T00:24:35;6.00;;;3.47;;
23088;SDS011;11713;48.506;8.966;2023-05-07T00:27:01;4.30;;;3.60;;
23088;SDS011;11713;48.506;8.966;2023-05-07T00:29:27;4.40;;;3.27;;
23088;SDS011;11713;48.506;8.966;2023-05-07T00:31:52;4.13;;;3.50;;
23088;SDS011;11713;48.506;8.966;2023-05-07T00:34:19;4.87;;;3.30;;
23088;SDS011;11713;48.506;8.966;2023-05-07T00:36:45;4.87;;;3.80;;
23088;SDS011;11713;48.506;8.966;2023-05-07T00:39:11;5.93;;;3.23;;
23088;SDS011;11713;48.506;8.966;2023-05-07T00:41:37;5.33;;;3.80;;
23088;SDS011;11713;48.506;8.966;2023-05-07T00:44:03;5.80;;;3.60;;
23088;SDS011;11713;48.506;8.966;2023-05-07T00:46:30;5.23;;;3.50;;
23088;SDS011;11713;48.506;8.966;2023-05-07T00:48:56;5.20;;;3.77;;
23088;SDS011;11713;48.506;8.966;2023-05-07T00:51:23;4.10;;;3.67;;
23088;SDS011;11713;48.506;8.966;2023-05-07T00:53:50;4.97;;;3.83;;
23088;SDS011;11713;48.506;8.966;2023-05-07T00:56:16;5.37;;;3.77;;
23088;SDS011;11713;48.506;8.966;2023-05-07T00:58:42;6.50;;;3.90;;
23088;SDS011;11713;48.506;8.966;2023-05-07T01:01:08;6.60;;;3.97;;
23088;SDS011;11713;48.506;8.966;2023-05-07T01:03:34;4.93;;;4.07;;
23088;SDS011;11713;48.506;8.966;2023-05-07T01:06:00;6.63;;;3.83;;
23088;SDS011;11713;48.506;8.966;2023-05-07T01:08:27;7.53;;;3.97;;
23088;SDS011;11713;48.506;8.966;2023-05-07T01:10:55;4.23;;;3.80;;
23088;SDS011;11713;48.506;8.966;2023-05-07T01:13:22;4.67;;;4.00;;
23088;SDS011;11713;48.506;8.966;2023-05-07T01:15:49;5.30;;;3.67;;
23088;SDS011;11713;48.506;8.966;2023-05-07T01:18:15;4.67;;;3.70;;
23088;SDS011;11713;48.506;8.966;2023-05-07T01:20:42;5.10;;;4.33;;
23088;SDS011;11713;48.506;8.966;2023-05-07T01:23:08;6.20;;;4.03;;
23088;SDS011;11713;48.506;8.966;2023-05-07T01:25:36;4.70;;;3.90;;
23088;SDS011;11713;48.506;8.966;2023-05-07T01:28:04;5.30;;;3.87;;
23088;SDS011;11713;48.506;8.966;2023-05-07T01:30:33;5.67;;;3.80;;
23088;SDS011;11713;48.506;8.966;2023-05-07T01:33:04;4.60;;;3.83;;
23088;SDS011;11713;48.506;8.966;2023-05-07T01:35:36;7.63;;;4.10;;
23088;SDS011;11713;48.506;8.966;2023-05-07T01:38:05;5.87;;;4.10;;
23088;SDS011;11713;48.506;8.966;2023-05-07T01:40:32;5.80;;;3.93;;
23088;SDS011;11713;48.506;8.966;2023-05-07T01:42:59;4.27;;;3.80;;
23088;SDS011;11713;48.506;8.966;2023-05-07T01:45:27;5.97;;;4.37;;
23088;SDS011;11713;48.506;8.966;2023-05-07T01:47:53;5.43;;;3.80;;
23088;SDS011;11713;48.506;8.966;2023-05-07T01:50:20;5.17;;;3.50;;
23088;SDS011;11713;48.506;8.966;2023-05-07T01:52:49;4.93;;;3.70;;
23088;SDS011;11713;48.506;8.966;2023-05-07T01:55:15;4.53;;;3.50;;
23088;SDS011;11713;48.506;8.966;2023-05-07T01:57:41;4.83;;;3.43;;
23088;SDS011;11713;48.506;8.966;2023-05-07T02:00:08;3.80;;;3.40;;
23088;SDS011;11713;48.506;8.966;2023-05-07T02:02:40;4.13;;;3.73;;
23088;SDS011;11713;48.506;8.966;2023-05-07T02:05:11;5.63;;;3.40;;
23088;SDS011;11713;48.506;8.966;2023-05-07T02:07:38;4.37;;;3.40;;
23088;SDS011;11713;48.506;8.966;2023-05-07T02:10:04;4.10;;;3.60;;
23088;SDS011;11713;48.506;8.966;2023-05-07T02:12:31;4.53;;;3.90;;
23088;SDS011;11713;48.506;8.966;2023-05-07T02:14:58;5.27;;;3.73;;
23088;SDS011;11713;48.506;8.966;2023-05-07T02:17:23;5.30;;;3.40;;
23088;SDS011;11713;48.506;8.966;2023-05-07T02:19:49;4.23;;;3.80;;
23088;SDS011;11713;48.506;8.966;2023-05-07T02:22:15;4.13;;;3.40;;
23088;SDS011;11713;48.506;8.966;2023-05-07T02:24:41;6.07;;;4.00;;
23088;SDS011;11713;48.506;8.966;2023-05-07T02:27:07;5.63;;;4.10;;
23088;SDS011;11713;48.506;8.966;2023-05-07T02:29:33;6.37;;;3.93;;
23088;SDS011;11713;48.506;8.966;2023-05-07T02:31:58;4.73;;;3.50;;
23088;SDS011;11713;48.506;8.966;2023-05-07T02:34:24;4.63;;;3.63;;
23088;SDS011;11713;48.506;8.966;2023-05-07T02:36:51;4.37;;;3.80;;
23088;SDS011;11713;48.506;8.966;2023-05-07T02:39:21;3.63;;;3.33;;
23088;SDS011;11713;48.506;8.966;2023-05-07T02:41:47;4.87;;;3.50;;
23088;SDS011;11713;48.506;8.966;2023-05-07T02:44:13;4.03;;;3.60;;
23088;SDS011;11713;48.506;8.966;2023-05-07T02:46:38;4.00;;;3.60;;
23088;SDS011;11713;48.506;8.966;2023-05-07T02:49:08;3.93;;;3.60;;
23088;SDS011;11713;48.506;8.966;2023-05-07T02:51:33;6.07;;;3.70;;
23088;SDS011;11713;48.506;8.966;2023-05-07T02:54:02;3.67;;;3.27;;
23088;SDS011;11713;48.506;8.966;2023-05-07T02:56:29;4.30;;;3.20;;
23088;SDS011;11713;48.506;8.966;2023-05-07T02:58:55;4.70;;;3.60;;
23088;SDS011;11713;48.506;8.966;2023-05-07T03:01:25;4.03;;;3.63;;
23088;SDS011;11713;48.506;8.966;2023-05-07T03:03:57;5.70;;;4.10;;
23088;SDS011;11713;48.506;8.966;2023-05-07T03:06:23;5.10;;;3.70;;
23088;SDS011;11713;48.506;8.966;2023-05-07T03:08:50;4.47;;;3.57;;
23088;SDS011;11713;48.506;8.966;2023-05-07T03:11:16;5.07;;;3.70;;
23088;SDS011;11713;48.506;8.966;2023-05-07T03:13:42;4.17;;;3.70;;
23088;SDS011;11713;48.506;8.966;2023-05-07T03:16:08;4.27;;;3.40;;
23088;SDS011;11713;48.506;8.966;2023-05-07T03:18:34;4.77;;;3.27;;
23088;SDS011;11713;48.506;8.966;2023-05-07T03:21:00;4.90;;;3.50;;
23088;SDS011;11713;48.506;8.966;2023-05-07T03:23:26;3.37;;;2.97;;
23088;SDS011;11713;48.506;8.966;2023-05-07T03:25:51;3.60;;;3.30;;
23088;SDS011;11713;48.506;8.966;2023-05-07T03:28:18;5.07;;;3.60;;
23088;SDS011;11713;48.506;8.966;2023-05-07T03:30:50;5.83;;;2.93;;
23088;SDS011;11713;48.506;8.966;2023-05-07T03:33:16;4.20;;;3.30;;
23088;SDS011;11713;48.506;8.966;2023-05-07T03:35:41;4.73;;;3.40;;
23088;SDS011;11713;48.506;8.966;2023-05-07T03:38:09;3.87;;;3.53;;
23088;SDS011;11713;48.506;8.966;2023-05-07T03:40:36;5.40;;;3.50;;
23088;SDS011;11713;48.506;8.966;2023-05-07T03:43:03;4.77;;;3.20;;
23088;SDS011;11713;48.506;8.966;2023-05-07T03:45:31;5.03;;;3.53;;
23088;SDS011;11713;48.506;8.966;2023-05-07T03:48:06;3.97;;;3.57;;
23088;SDS011;11713;48.506;8.966;2023-05-07T03:50:33;4.43;;;3.37;;
23088;SDS011;11713;48.506;8.966;2023-05-07T03:52:59;5.73;;;3.63;;
23088;SDS011;11713;48.506;8.966;2023-05-07T03:55:26;3.70;;;3.30;;
23088;SDS011;11713;48.506;8.966;2023-05-07T03:57:57;7.00;;;3.53;;
23088;SDS011;11713;48.506;8.966;2023-05-07T04:00:24;4.07;;;3.33;;
23088;SDS011;11713;48.506;8.966;2023-05-07T04:02:50;4.00;;;3.70;;
23088;SDS011;11713;48.506;8.966;2023-05-07T04:05:22;3.93;;;3.47;;
23088;SDS011;11713;48.506;8.966;2023-05-07T04:07:52;5.50;;;3.40;;
23088;SDS011;11713;48.506;8.966;2023-05-07T04:10:24;5.80;;;3.13;;
23088;SDS011;11713;48.506;8.966;2023-05-07T04:12:53;5.73;;;3.20;;
23088;SDS011;11713;48.506;8.966;2023-05-07T04:15:21;5.53;;;3.73;;
23088;SDS011;11713;48.506;8.966;2023-05-07T04:17:47;6.43;;;3.40;;
23088;SDS011;11713;48.506;8.966;2023-05-07T04:20:16;5.23;;;3.43;;
23088;SDS011;11713;48.506;8.966;2023-05-07T04:22:46;4.43;;;3.90;;
23088;SDS011;11713;48.506;8.966;2023-05-07T04:25:13;4.67;;;3.50;;
23088;SDS011;11713;48.506;8.966;2023-05-07T04:27:40;4.33;;;3.33;;
23088;SDS011;11713;48.506;8.966;2023-05-07T04:30:07;3.80;;;3.40;;
23088;SDS011;11713;48.506;8.966;2023-05-07T04:32:37;4.33;;;3.63;;
23088;SDS011;11713;48.506;8.966;2023-05-07T04:35:04;4.47;;;3.37;;
23088;SDS011;11713;48.506;8.966;2023-05-07T04:37:34;3.97;;;3.60;;
23088;SDS011;11713;48.506;8.966;2023-05-07T04:40:01;5.90;;;3.93;;
23088;SDS011;11713;48.506;8.966;2023-05-07T04:42:28;5.57;;;3.27;;
23088;SDS011;11713;48.506;8.966;2023-05-07T04:44:54;5.73;;;3.67;;
23088;SDS011;11713;48.506;8.966;2023-05-07T04:47:22;4.30;;;3.30;;
23088;SDS011;11713;48.506;8.966;2023-05-07T04:49:47;5.30;;;3.60;;
23088;SDS011;11713;48.506;8.966;2023-05-07T04:52:14;5.50;;;3.23;;
23088;SDS011;11713;48.506;8.966;2023-05-07T04:54:40;5.73;;;3.40;;
23088;SDS011;11713;48.506;8.966;2023-05-07T04:57:07;3.73;;;3.33;;
23088;SDS011;11713;48.506;8.966;2023-05-07T04:59:33;4.77;;;3.40;;
23088;SDS011;11713;48.506;8.966;2023-05-07T05:01:59;5.50;;;3.60;;
23088;SDS011;11713;48.506;8.966;2023-05-07T05:04:26;3.30;;;3.00;;
23088;SDS011;11713;48.506;8.966;2023-05-07T05:06:52;3.50;;;3.20;;
23088;SDS011;11713;48.506;8.966;2023-05-07T05:09:18;3.50;;;3.20;;
23088;SDS011;11713;48.506;8.966;2023-05-07T05:11:47;3.57;;;3.00;;
23088;SDS011;11713;48.506;8.966;2023-05-07T05:14:13;3.67;;;3.30;;
23088;SDS011;11713;48.506;8.966;2023-05-07T05:16:39;3.87;;;3.50;;
23088;SDS011;11713;48.506;8.966;2023-05-07T05:19:05;3.47;;;3.17;;
23088;SDS011;11713;48.506;8.966;2023-05-07T05:21:34;3.53;;;3.23;;
23088;SDS011;11713;48.506;8.966;2023-05-07T05:24:06;3.93;;;3.43;;
23088;SDS011;11713;48.506;8.966;2023-05-07T05:26:32;5.47;;;3.70;;
23088;SDS011;11713;48.506;8.966;2023-05-07T05:28:57;3.87;;;3.20;;
23088;SDS011;11713;48.506;8.966;2023-05-07T05:31:25;4.10;;;3.37;;
23088;SDS011;11713;48.506;8.966;2023-05-07T05:33:51;4.83;;;3.37;;
23088;SDS011;11713;48.506;8.966;2023-05-07T05:36:17;3.90;;;3.37;;
23088;SDS011;11713;48.506;8.966;2023-05-07T05:38:46;3.73;;;3.37;;
23088;SDS011;11713;48.506;8.966;2023-05-07T05:41:13;3.47;;;3.00;;
23088;SDS011;11713;48.506;8.966;2023-05-07T05:43:38;3.37;;;3.07;;
23088;SDS011;11713;48.506;8.966;2023-05-07T05:46:05;3.00;;;2.80;;
23088;SDS011;11713;48.506;8.966;2023-05-07T05:48:32;4.37;;;3.43;;
23088;SDS011;11713;48.506;8.966;2023-05-07T05:51:00;5.93;;;3.37;;
23088;SDS011;11713;48.506;8.966;2023-05-07T05:53:26;3.50;;;3.10;;
23088;SDS011;11713;48.506;8.966;2023-05-07T05:55:53;3.83;;;3.17;;
23088;SDS011;11713;48.506;8.966;2023-05-07T05:58:19;3.30;;;3.10;;
23088;SDS011;11713;48.506;8.966;2023-05-07T06:00:51;5.83;;;3.43;;
23088;SDS011;11713;48.506;8.966;2023-05-07T06:03:20;3.80;;;3.20;;
23088;SDS011;11713;48.506;8.966;2023-05-07T06:05:46;4.87;;;3.17;;
23088;SDS011;11713;48.506;8.966;2023-05-07T06:08:13;6.07;;;3.60;;
23088;SDS011;11713;48.506;8.966;2023-05-07T06:10:39;3.90;;;3.60;;
23088;SDS011;11713;48.506;8.966;2023-05-07T06:13:07;4.33;;;3.50;;
23088;SDS011;11713;48.506;8.966;2023-05-07T06:15:35;3.77;;;3.40;;
23088;SDS011;11713;48.506;8.966;2023-05-07T06:18:06;4.53;;;3.53;;
23088;SDS011;11713;48.506;8.966;2023-05-07T06:20:32;3.93;;;3.53;;
23088;SDS011;11713;48.506;8.966;2023-05-07T06:23:00;4.27;;;3.13;;
23088;SDS011;11713;48.506;8.966;2023-05-07T06:25:27;5.20;;;3.87;;
23088;SDS011;11713;48.506;8.966;2023-05-07T06:27:52;4.63;;;3.40;;
23088;SDS011;11713;48.506;8.966;2023-05-07T06:30:18;4.80;;;3.50;;
23088;SDS011;11713;48.506;8.966;2023-05-07T06:32:45;3.90;;;3.30;;
23088;SDS011;11713;48.506;8.966;2023-05-07T06:35:12;4.87;;;3.67;;
23088;SDS011;11713;48.506;8.966;2023-05-07T06:37:39;4.47;;;3.33;;
23088;SDS011;11713;48.506;8.966;2023-05-07T06:40:12;5.17;;;3.73;;
23088;SDS011;11713;48.506;8.966;2023-05-07T06:42:39;4.37;;;3.17;;
23088;SDS011;11713;48.506;8.966;2023-05-07T06:45:37;7.00;;;3.80;;
23088;SDS011;11713;48.506;8.966;2023-05-07T06:48:05;3.77;;;3.47;;
23088;SDS011;11713;48.506;8.966;2023-05-07T06:50:37;5.50;;;3.27;;
23088;SDS011;11713;48.506;8.966;2023-05-07T06:53:03;4.47;;;3.20;;
23088;SDS011;11713;48.506;8.966;2023-05-07T06:55:29;3.77;;;3.33;;
23088;SDS011;11713;48.506;8.966;2023-05-07T06:57:56;4.30;;;3.70;;
23088;SDS011;11713;48.506;8.966;2023-05-07T07:00:26;4.50;;;3.53;;
23088;SDS011;11713;48.506;8.966;2023-05-07T07:02:55;4.87;;;3.50;;
23088;SDS011;11713;48.506;8.966;2023-05-07T07:05:24;3.63;;;3.33;;
23088;SDS011;11713;48.506;8.966;2023-05-07T07:07:50;5.30;;;3.77;;
23088;SDS011;11713;48.506;8.966;2023-05-07T07:10:21;5.20;;;3.60;;
23088;SDS011;11713;48.506;8.966;2023-05-07T07:12:49;6.73;;;3.77;;
23088;SDS011;11713;48.506;8.966;2023-05-07T07:15:16;4.27;;;3.80;;
23088;SDS011;11713;48.506;8.966;2023-05-07T07:17:42;4.10;;;3.40;;
23088;SDS011;11713;48.506;8.966;2023-05-07T07:20:08;4.07;;;3.60;;
23088;SDS011;11713;48.506;8.966;2023-05-07T07:22:35;4.00;;;3.60;;
23088;SDS011;11713;48.506;8.966;2023-05-07T07:25:01;3.77;;;3.43;;
23088;SDS011;11713;48.506;8.966;2023-05-07T07:27:28;3.37;;;3.07;;
23088;SDS011;11713;48.506;8.966;2023-05-07T07:29:54;4.07;;;3.63;;
23088;SDS011;11713;48.506;8.966;2023-05-07T07:32:20;5.53;;;3.97;;
23088;SDS011;11713;48.506;8.966;2023-05-07T07:34:46;4.30;;;3.90;;
23088;SDS011;11713;48.506;8.966;2023-05-07T07:37:12;4.43;;;3.45;;
23088;SDS011;11713;48.506;8.966;2023-05-07T07:39:45;4.30;;;3.58;;
23088;SDS011;11713;48.506;8.966;2023-05-07T07:42:11;4.05;;;3.60;;
23088;SDS011;11713;48.506;8.966;2023-05-07T07:44:37;4.95;;;3.72;;
23088;SDS011;11713;48.506;8.966;2023-05-07T07:47:07;4.07;;;3.35;;
23088;SDS011;11713;48.506;8.966;2023-05-07T07:49:33;3.33;;;3.03;;
23088;SDS011;11713;48.506;8.966;2023-05-07T07:52:03;3.90;;;3.22;;
23088;SDS011;11713;48.506;8.966;2023-05-07T07:54:32;3.92;;;3.30;;
23088;SDS011;11713;48.506;8.966;2023-05-07T07:56:59;5.13;;;3.88;;
23088;SDS011;11713;48.506;8.966;2023-05-07T07:59:25;5.07;;;3.83;;
23088;SDS011;11713;48.506;8.966;2023-05-07T08:01:51;4.22;;;3.42;;
23088;SDS011;11713;48.506;8.966;2023-05-07T08:04:21;6.65;;;3.58;;
23088;SDS011;11713;48.506;8.966;2023-05-07T08:06:48;6.70;;;4.00;;
23088;SDS011;11713;48.506;8.966;2023-05-07T08:09:14;4.18;;;3.78;;
23088;SDS011;11713;48.506;8.966;2023-05-07T08:11:40;4.00;;;3.70;;
23088;SDS011;11713;48.506;8.966;2023-05-07T08:14:07;5.70;;;3.60;;
23088;SDS011;11713;48.506;8.966;2023-05-07T08:16:34;3.70;;;3.40;;
23088;SDS011;11713;48.506;8.966;2023-05-07T08:19:00;5.57;;;3.80;;
23088;SDS011;11713;48.506;8.966;2023-05-07T08:21:26;4.40;;;4.00;;
23088;SDS011;11713;48.506;8.966;2023-05-07T08:23:53;3.85;;;3.55;;
23088;SDS011;11713;48.506;8.966;2023-05-07T08:26:19;4.97;;;4.13;;
23088;SDS011;11713;48.506;8.966;2023-05-07T08:28:46;7.35;;;3.53;;
23088;SDS011;11713;48.506;8.966;2023-05-07T08:31:12;4.75;;;3.58;;
23088;SDS011;11713;48.506;8.966;2023-05-07T08:33:39;4.05;;;3.65;;
23088;SDS011;11713;48.506;8.966;2023-05-07T08:36:06;4.32;;;3.92;;
23088;SDS011;11713;48.506;8.966;2023-05-07T08:38:32;3.10;;;2.90;;
23088;SDS011;11713;48.506;8.966;2023-05-07T08:40:58;5.68;;;4.30;;
23088;SDS011;11713;48.506;8.966;2023-05-07T08:43:26;4.20;;;3.40;;
23088;SDS011;11713;48.506;8.966;2023-05-07T08:45:55;4.95;;;3.60;;
23088;SDS011;11713;48.506;8.966;2023-05-07T08:48:26;4.15;;;3.50;;
23088;SDS011;11713;48.506;8.966;2023-05-07T08:51:03;4.97;;;4.57;;
23088;SDS011;11713;48.506;8.966;2023-05-07T08:53:31;4.88;;;3.20;;
23088;SDS011;11713;48.506;8.966;2023-05-07T08:55:59;4.15;;;3.35;;
23088;SDS011;11713;48.506;8.966;2023-05-07T08:58:28;3.72;;;3.20;;
23088;SDS011;11713;48.506;8.966;2023-05-07T09:00:55;3.35;;;2.90;;
23088;SDS011;11713;48.506;8.966;2023-05-07T09:03:22;4.30;;;3.00;;
23088;SDS011;11713;48.506;8.966;2023-05-07T09:05:51;3.78;;;3.38;;
23088;SDS011;11713;48.506;8.966;2023-05-07T09:08:19;6.18;;;3.35;;
23088;SDS011;11713;48.506;8.966;2023-05-07T09:10:55;4.55;;;3.10;;
23088;SDS011;11713;48.506;8.966;2023-05-07T09:13:22;3.50;;;2.65;;
23088;SDS011;11713;48.506;8.966;2023-05-07T09:15:48;3.08;;;2.67;;
23088;SDS011;11713;48.506;8.966;2023-05-07T09:18:15;2.95;;;2.65;;
23088;SDS011;11713;48.506;8.966;2023-05-07T09:20:41;2.67;;;2.47;;
23088;SDS011;11713;48.506;8.966;2023-05-07T09:23:08;3.90;;;2.58;;
23088;SDS011;11713;48.506;8.966;2023-05-07T09:25:35;3.20;;;2.78;;
23088;SDS011;11713;48.506;8.966;2023-05-07T09:28:08;4.75;;;2.53;;
23088;SDS011;11713;48.506;8.966;2023-05-07T09:30:35;3.00;;;2.80;;
23088;SDS011;11713;48.506;8.966;2023-05-07T09:33:05;2.50;;;2.30;;
23088;SDS011;11713;48.506;8.966;2023-05-07T09:35:34;4.85;;;2.70;;
23088;SDS011;11713;48.506;8.966;2023-05-07T09:38:06;2.80;;;2.50;;
23088;SDS011;11713;48.506;8.966;2023-05-07T09:40:35;2.42;;;2.13;;
23088;SDS011;11713;48.506;8.966;2023-05-07T09:43:09;2.80;;;2.03;;
23088;SDS011;11713;48.506;8.966;2023-05-07T09:45:52;2.97;;;2.45;;
23088;SDS011;11713;48.506;8.966;2023-05-07T09:52:13;3.03;;;2.33;;
23088;SDS011;11713;48.506;8.966;2023-05-07T09:54:49;2.85;;;2.22;;
23088;SDS011;11713;48.506;8.966;2023-05-07T09:57:24;3.22;;;2.15;;
23088;SDS011;11713;48.506;8.966;2023-05-07T09:59:57;3.10;;;2.40;;
23088;SDS011;11713;48.506;8.966;2023-05-07T10:03:04;2.30;;;2.10;;
23088;SDS011;11713;48.506;8.966;2023-05-07T10:05:58;2.92;;;2.30;;
23088;SDS011;11713;48.506;8.966;2023-05-07T10:08:26;2.80;;;2.50;;
23088;SDS011;11713;48.506;8.966;2023-05-07T10:10:57;2.80;;;2.13;;
23088;SDS011;11713;48.506;8.966;2023-05-07T10:13:26;2.38;;;2.17;;
23088;SDS011;11713;48.506;8.966;2023-05-07T10:15:55;2.78;;;2.03;;
23088;SDS011;11713;48.506;8.966;2023-05-07T10:18:25;3.70;;;2.38;;
23088;SDS011;11713;48.506;8.966;2023-05-07T10:21:02;2.42;;;2.22;;
23088;SDS011;11713;48.506;8.966;2023-05-07T10:23:33;3.72;;;2.22;;
23088;SDS011;11713;48.506;8.966;2023-05-07T10:26:02;2.58;;;1.92;;
23088;SDS011;11713;48.506;8.966;2023-05-07T10:28:34;2.10;;;1.90;;
23088;SDS011;11713;48.506;8.966;2023-05-07T10:34:10;2.78;;;2.38;;
23088;SDS011;11713;48.506;8.966;2023-05-07T10:36:39;3.58;;;2.00;;
23088;SDS011;11713;48.506;8.966;2023-05-07T10:39:05;3.35;;;2.00;;
23088;SDS011;11713;48.506;8.966;2023-05-07T10:41:32;2.55;;;2.28;;
23088;SDS011;11713;48.506;8.966;2023-05-07T10:43:58;2.30;;;2.10;;
23088;SDS011;11713;48.506;8.966;2023-05-07T10:46:29;4.97;;;2.38;;
23088;SDS011;11713;48.506;8.966;2023-05-07T10:52:04;2.45;;;2.25;;
23088;SDS011;11713;48.506;8.966;2023-05-07T10:54:43;3.35;;;2.58;;
23088;SDS011;11713;48.506;8.966;2023-05-07T10:57:58;3.05;;;2.47;;
23088;SDS011;11713;48.506;8.966;2023-05-07T11:05:37;3.58;;;2.50;;
23088;SDS011;11713;48.506;8.966;2023-05-07T11:08:17;2.58;;;2.38;;
23088;SDS011;11713;48.506;8.966;2023-05-07T11:10:54;2.60;;;2.40;;
23088;SDS011;11713;48.506;8.966;2023-05-07T11:13:45;2.50;;;2.17;;
23088;SDS011;11713;48.506;8.966;2023-05-07T11:16:45;3.83;;;2.30;;
23088;SDS011;11713;48.506;8.966;2023-05-07T11:19:47;2.60;;;2.40;;
23088;SDS011;11713;48.506;8.966;2023-05-07T11:22:38;3.22;;;2.20;;
23088;SDS011;11713;48.506;8.966;2023-05-07T11:25:17;3.35;;;2.10;;
23088;SDS011;11713;48.506;8.966;2023-05-07T11:27:53;4.22;;;2.08;;
23088;SDS011;11713;48.506;8.966;2023-05-07T11:30:20;4.15;;;2.20;;
23088;SDS011;11713;48.506;8.966;2023-05-07T11:32:47;2.55;;;2.08;;
23088;SDS011;11713;48.506;8.966;2023-05-07T11:35:15;2.42;;;1.85;;
23088;SDS011;11713;48.506;8.966;2023-05-07T11:37:43;3.47;;;2.15;;
23088;SDS011;11713;48.506;8.966;2023-05-07T11:40:14;4.03;;;2.20;;
23088;SDS011;11713;48.506;8.966;2023-05-07T11:42:40;2.35;;;2.15;;
23088;SDS011;11713;48.506;8.966;2023-05-07T11:45:08;2.00;;;1.90;;
23088;SDS011;11713;48.506;8.966;2023-05-07T11:47:34;2.70;;;2.17;;
23088;SDS011;11713;48.506;8.966;2023-05-07T11:50:06;3.00;;;2.30;;
23088;SDS011;11713;48.506;8.966;2023-05-07T11:52:33;4.63;;;2.20;;
23088;SDS011;11713;48.506;8.966;2023-05-07T11:55:01;5.40;;;2.50;;
23088;SDS011;11713;48.506;8.966;2023-05-07T11:57:29;3.47;;;2.42;;
23088;SDS011;11713;48.506;8.966;2023-05-07T11:59:59;3.35;;;2.53;;
23088;SDS011;11713;48.506;8.966;2023-05-07T12:02:27;4.95;;;2.45;;
23088;SDS011;11713;48.506;8.966;2023-05-07T12:04:54;3.15;;;2.72;;
23088;SDS011;11713;48.506;8.966;2023-05-07T12:07:20;2.58;;;2.30;;
23088;SDS011;11713;48.506;8.966;2023-05-07T12:09:46;2.60;;;2.40;;
23088;SDS011;11713;48.506;8.966;2023-05-07T12:12:12;3.30;;;2.25;;
23088;SDS011;11713;48.506;8.966;2023-05-07T12:14:41;2.60;;;2.40;;
23088;SDS011;11713;48.506;8.966;2023-05-07T12:17:08;3.30;;;2.38;;
23088;SDS011;11713;48.506;8.966;2023-05-07T12:19:35;4.18;;;2.33;;
23088;SDS011;11713;48.506;8.966;2023-05-07T12:22:02;3.17;;;2.60;;
23088;SDS011;11713;48.506;8.966;2023-05-07T12:24:46;3.22;;;2.40;;
23088;SDS011;11713;48.506;8.966;2023-05-07T12:27:14;4.97;;;2.38;;
23088;SDS011;11713;48.506;8.966;2023-05-07T12:29:48;2.60;;;2.40;;
23088;SDS011;11713;48.506;8.966;2023-05-07T12:32:18;3.00;;;2.33;;
23088;SDS011;11713;48.506;8.966;2023-05-07T12:34:46;2.72;;;2.10;;
23088;SDS011;11713;48.506;8.966;2023-05-07T12:37:25;2.63;;;2.20;;
23088;SDS011;11713;48.506;8.966;2023-05-07T12:40:10;3.92;;;1.95;;
23088;SDS011;11713;48.506;8.966;2023-05-07T12:42:36;3.75;;;2.25;;
23088;SDS011;11713;48.506;8.966;2023-05-07T12:45:13;4.22;;;2.47;;
23088;SDS011;11713;48.506;8.966;2023-05-07T12:47:44;3.05;;;2.40;;
23088;SDS011;11713;48.506;8.966;2023-05-07T12:50:10;4.82;;;2.30;;
23088;SDS011;11713;48.506;8.966;2023-05-07T12:52:37;3.55;;;2.35;;
23088;SDS011;11713;48.506;8.966;2023-05-07T12:55:07;4.03;;;2.45;;
23088;SDS011;11713;48.506;8.966;2023-05-07T12:57:47;3.03;;;2.72;;
23088;SDS011;11713;48.506;8.966;2023-05-07T13:00:18;3.58;;;3.10;;
23088;SDS011;11713;48.506;8.966;2023-05-07T13:03:08;4.13;;;3.53;;
23088;SDS011;11713;48.506;8.966;2023-05-07T13:05:34;3.97;;;3.25;;
23088;SDS011;11713;48.506;8.966;2023-05-07T13:08:00;3.67;;;3.28;;
23088;SDS011;11713;48.506;8.966;2023-05-07T13:10:26;5.00;;;3.55;;
23088;SDS011;11713;48.506;8.966;2023-05-07T13:12:52;6.95;;;3.83;;
23088;SDS011;11713;48.506;8.966;2023-05-07T13:15:18;6.05;;;2.92;;
23088;SDS011;11713;48.506;8.966;2023-05-07T13:17:44;3.92;;;3.40;;
23088;SDS011;11713;48.506;8.966;2023-05-07T13:20:10;5.53;;;3.75;;
23088;SDS011;11713;48.506;8.966;2023-05-07T13:22:37;4.15;;;3.13;;
23088;SDS011;11713;48.506;8.966;2023-05-07T13:25:14;6.72;;;3.47;;
23088;SDS011;11713;48.506;8.966;2023-05-07T13:27:40;5.65;;;2.88;;
23088;SDS011;11713;48.506;8.966;2023-05-07T13:30:06;5.32;;;2.58;;
23088;SDS011;11713;48.506;8.966;2023-05-07T13:32:32;4.30;;;2.90;;
23088;SDS011;11713;48.506;8.966;2023-05-07T13:34:58;4.35;;;2.60;;
23088;SDS011;11713;48.506;8.966;2023-05-07T13:37:24;5.60;;;2.97;;
23088;SDS011;11713;48.506;8.966;2023-05-07T13:39:49;4.90;;;2.90;;
23088;SDS011;11713;48.506;8.966;2023-05-07T13:42:15;4.40;;;2.72;;
23088;SDS011;11713;48.506;8.966;2023-05-07T13:44:41;7.40;;;3.05;;
23088;SDS011;11713;48.506;8.966;2023-05-07T13:47:08;6.85;;;3.13;;
23088;SDS011;11713;48.506;8.966;2023-05-07T13:49:35;5.30;;;2.70;;
23088;SDS011;11713;48.506;8.966;2023-05-07T13:52:01;4.68;;;2.65;;
23088;SDS011;11713;48.506;8.966;2023-05-07T13:54:27;5.70;;;2.92;;
23088;SDS011;11713;48.506;8.966;2023-05-07T13:56:53;6.43;;;3.42;;
23088;SDS011;11713;48.506;8.966;2023-05-07T13:59:19;12.88;;;3.53;;
23088;SDS011;11713;48.506;8.966;2023-05-07T14:01:45;4.30;;;2.40;;
23088;SDS011;11713;48.506;8.966;2023-05-07T14:04:11;4.10;;;2.33;;
23088;SDS011;11713;48.506;8.966;2023-05-07T14:06:37;5.03;;;2.58;;
23088;SDS011;11713;48.506;8.966;2023-05-07T14:09:04;4.10;;;2.60;;
23088;SDS011;11713;48.506;8.966;2023-05-07T14:11:29;3.88;;;2.40;;
23088;SDS011;11713;48.506;8.966;2023-05-07T14:13:55;4.28;;;2.67;;
23088;SDS011;11713;48.506;8.966;2023-05-07T14:16:22;3.28;;;2.97;;
23088;SDS011;11713;48.506;8.966;2023-05-07T14:18:48;3.95;;;3.03;;
23088;SDS011;11713;48.506;8.966;2023-05-07T14:21:14;4.40;;;3.03;;
23088;SDS011;11713;48.506;8.966;2023-05-07T14:23:39;4.90;;;3.00;;
23088;SDS011;11713;48.506;8.966;2023-05-07T14:26:05;4.35;;;3.13;;
23088;SDS011;11713;48.506;8.966;2023-05-07T14:28:31;4.35;;;3.25;;
23088;SDS011;11713;48.506;8.966;2023-05-07T14:30:57;6.40;;;3.05;;
23088;SDS011;11713;48.506;8.966;2023-05-07T14:33:24;8.85;;;3.67;;
23088;SDS011;11713;48.506;8.966;2023-05-07T14:35:50;4.22;;;3.00;;
23088;SDS011;11713;48.506;8.966;2023-05-07T14:38:16;3.53;;;3.00;;
23088;SDS011;11713;48.506;8.966;2023-05-07T14:40:42;5.22;;;3.28;;
23088;SDS011;11713;48.506;8.966;2023-05-07T14:43:08;5.60;;;3.45;;
23088;SDS011;11713;48.506;8.966;2023-05-07T14:45:34;5.22;;;3.38;;
23088;SDS011;11713;48.506;8.966;2023-05-07T14:48:00;5.53;;;3.50;;
23088;SDS011;11713;48.506;8.966;2023-05-07T14:50:26;7.80;;;4.18;;
23088;SDS011;11713;48.506;8.966;2023-05-07T14:52:51;7.32;;;4.40;;
23088;SDS011;11713;48.506;8.966;2023-05-07T14:55:17;4.00;;;3.25;;
23088;SDS011;11713;48.506;8.966;2023-05-07T14:57:43;3.10;;;2.80;;
23088;SDS011;11713;48.506;8.966;2023-05-07T15:00:09;7.57;;;3.15;;
23088;SDS011;11713;48.506;8.966;2023-05-07T15:02:36;4.43;;;3.40;;
23088;SDS011;11713;48.506;8.966;2023-05-07T15:05:02;4.68;;;3.50;;
23088;SDS011;11713;48.506;8.966;2023-05-07T15:07:31;4.10;;;3.70;;
23088;SDS011;11713;48.506;8.966;2023-05-07T15:09:59;7.72;;;3.95;;